Time;durP1;ratioP1;P1;durP2;ratioP2;P2;SDS_P1;SDS_P2;PMS_P1;PMS_P2;Temp;Humidity;BMP_temperature;BMP_pressure;BME280_temperature;BME280_humidity;BME280_pressure;Samples;Min_cycle;Max_cycle;Signal;HPM_P1;HPM_P2
2023/04/15 00:00:54;;;;;;;9.93;1.83;;;;;;;15.78;53.58;101337.50;5091714;28;20031;-48
2023/04/15 00:03:20;;;;;;;10.25;2.50;;;;;;;15.57;54.98;101333.38;5081944;28;20024;-46
2023/04/15 00:05:47;;;;;;;7.47;1.83;;;;;;;15.67;55.10;101340.97;5079761;28;20500;-47
2023/04/15 00:08:14;;;;;;;14.13;2.00;;;;;;;15.79;54.00;101330.22;5091219;28;20055;-48
2023/04/15 00:10:43;;;;;;;5.63;2.03;;;;;;;15.52;55.08;101335.94;5088637;28;20028;-46
2023/04/15 00:13:09;;;;;;;8.18;2.28;;;;;;;15.13;55.13;101333.69;5111892;28;20059;-48
2023/04/15 00:15:36;;;;;;;11.52;2.80;;;;;;;14.82;56.02;101329.22;5103722;28;20043;-46
2023/04/15 00:18:03;;;;;;;7.10;2.22;;;;;;;14.59;58.17;101336.06;5111537;28;20542;-46
2023/04/15 00:20:29;;;;;;;6.80;2.15;;;;;;;14.67;57.45;101332.28;5106571;28;20032;-47
2023/04/15 00:22:55;;;;;;;8.85;2.58;;;;;;;14.88;57.70;101333.72;5111727;28;20027;-46
2023/04/15 00:25:22;;;;;;;11.95;2.40;;;;;;;14.63;58.62;101336.47;5109386;28;20063;-47
2023/04/15 00:27:48;;;;;;;8.68;2.13;;;;;;;14.37;59.20;101327.50;5111559;28;20476;-47
2023/04/15 00:30:14;;;;;;;7.75;1.88;;;;;;;14.41;59.32;101334.13;5107940;28;20032;-47
2023/04/15 00:32:41;;;;;;;9.85;2.20;;;;;;;14.46;60.01;101325.38;5108123;28;20579;-48
2023/04/15 00:35:07;;;;;;;12.45;2.53;;;;;;;14.46;60.38;101331.59;5109625;28;20613;-51
2023/04/15 00:37:34;;;;;;;9.05;2.05;;;;;;;14.69;58.85;101330.19;5112596;28;20034;-46
2023/04/15 00:40:00;;;;;;;12.98;2.20;;;;;;;14.52;59.03;101335.31;5115293;28;20028;-47
2023/04/15 00:42:28;;;;;;;9.38;2.13;;;;;;;14.45;59.95;101335.34;5113248;28;20426;-47
2023/04/15 00:44:54;;;;;;;7.00;2.10;;;;;;;14.48;60.19;101337.59;5114894;27;20059;-46
2023/04/15 00:47:21;;;;;;;15.30;2.65;;;;;;;14.39;60.43;101347.00;5106148;28;20481;-47
2023/04/15 00:49:48;;;;;;;10.32;2.33;;;;;;;14.45;60.38;101335.34;5109673;28;20020;-49
2023/04/15 00:52:14;;;;;;;8.05;2.40;;;;;;;14.49;60.08;101336.59;5102500;28;20081;-47
2023/04/15 00:54:40;;;;;;;9.43;2.08;;;;;;;14.63;59.99;101339.16;5094188;28;20089;-46
2023/04/15 00:57:07;;;;;;;9.93;2.28;;;;;;;14.53;60.04;101337.78;5099056;28;20032;-48
2023/04/15 00:59:34;;;;;;;12.95;2.38;;;;;;;14.44;60.35;101344.47;5094356;28;20388;-50
2023/04/15 01:02:00;;;;;;;9.45;1.77;;;;;;;13.99;60.97;101341.03;5078191;28;20035;-47
2023/04/15 01:04:26;;;;;;;9.05;2.40;;;;;;;14.09;61.33;101340.56;5084888;28;20100;-51
2023/04/15 01:06:53;;;;;;;8.25;2.17;;;;;;;13.95;61.43;101335.28;5091777;28;20027;-49
2023/04/15 01:09:19;;;;;;;11.90;3.17;;;;;;;13.68;62.71;101342.66;5087920;28;20028;-46
2023/04/15 01:11:46;;;;;;;7.28;2.08;;;;;;;13.95;62.01;101340.66;5086730;28;20027;-48
2023/04/15 01:14:13;;;;;;;7.82;2.33;;;;;;;13.96;61.71;101342.28;5081058;28;20046;-48
2023/04/15 01:16:39;;;;;;;10.05;1.92;;;;;;;13.97;61.15;101343.13;5075694;28;20507;-49
2023/04/15 01:19:09;;;;;;;7.78;1.73;;;;;;;13.84;62.11;101335.94;5088659;28;20127;-47
2023/04/15 01:21:38;;;;;;;8.40;1.98;;;;;;;14.05;61.48;101334.81;5087174;28;20038;-50
2023/04/15 01:24:09;;;;;;;5.30;1.73;;;;;;;13.65;62.75;101343.06;5073872;28;20031;-50
2023/04/15 01:26:38;;;;;;;9.82;2.10;;;;;;;13.67;63.17;101340.19;5077470;28;20032;-45
2023/04/15 01:29:05;;;;;;;11.20;2.30;;;;;;;13.76;62.64;101344.25;5074081;28;20032;-47
2023/04/15 01:31:32;;;;;;;7.57;2.17;;;;;;;13.56;63.32;101343.53;5073386;28;20029;-48
2023/04/15 01:33:58;;;;;;;7.38;2.00;;;;;;;13.61;63.40;101343.72;5092423;28;20411;-46
2023/04/15 01:36:24;;;;;;;5.35;1.90;;;;;;;13.47;63.73;101345.63;5092698;28;20130;-49
2023/04/15 01:38:51;;;;;;;6.32;1.98;;;;;;;13.54;63.42;101348.28;5093664;28;20465;-49
2023/04/15 01:41:27;;;;;;;8.38;1.90;;;;;;;13.34;64.22;101349.19;5094137;28;20024;-50
2023/04/15 01:43:54;;;;;;;5.57;1.90;;;;;;;13.06;65.44;101341.38;5094084;28;20020;-50
2023/04/15 01:46:20;;;;;;;9.57;1.77;;;;;;;13.35;65.06;101342.78;5093326;28;20111;-49
2023/04/15 01:48:47;;;;;;;8.63;2.08;;;;;;;13.46;64.92;101347.50;5093002;28;20024;-46
2023/04/15 01:51:13;;;;;;;7.15;2.28;;;;;;;13.60;64.66;101342.91;5093211;28;20489;-48
2023/04/15 01:53:39;;;;;;;6.78;2.28;;;;;;;13.67;64.66;101351.78;5090770;28;20028;-47
2023/04/15 01:56:06;;;;;;;6.20;1.58;;;;;;;13.76;64.02;101349.63;5093577;28;20408;-46
2023/04/15 01:58:33;;;;;;;9.50;2.20;;;;;;;13.51;64.94;101348.72;5093376;28;20020;-49
2023/04/15 02:00:59;;;;;;;8.65;2.42;;;;;;;13.34;65.18;101357.28;5093383;28;20061;-46
2023/04/15 02:03:26;;;;;;;4.53;2.03;;;;;;;13.37;65.60;101358.69;5081152;28;20032;-47
2023/04/15 02:05:52;;;;;;;8.90;1.73;;;;;;;13.50;65.28;101363.22;5072836;28;20033;-46
2023/04/15 02:08:18;;;;;;;7.60;2.10;;;;;;;13.45;65.22;101364.69;5090825;28;20062;-45
2023/04/15 02:10:45;;;;;;;9.50;2.22;;;;;;;13.31;65.67;101372.97;5093323;28;20026;-47
2023/04/15 02:13:11;;;;;;;9.85;1.80;;;;;;;13.27;66.20;101369.91;5096630;28;20016;-47
2023/04/15 02:15:37;;;;;;;9.65;2.35;;;;;;;12.99;67.19;101366.59;5077836;28;20070;-47
2023/04/15 02:18:04;;;;;;;6.28;1.60;;;;;;;13.12;67.16;101371.97;5091620;28;20107;-46
2023/04/15 02:20:31;;;;;;;8.23;2.00;;;;;;;13.30;66.65;101377.53;5091738;28;20016;-46
2023/04/15 02:22:57;;;;;;;9.70;1.70;;;;;;;13.18;67.22;101384.56;5086699;28;20024;-45
2023/04/15 02:25:23;;;;;;;6.75;1.48;;;;;;;13.18;67.04;101392.63;5091356;28;20027;-46
2023/04/15 02:27:49;;;;;;;4.82;2.13;;;;;;;12.92;68.03;101398.84;5072654;28;20064;-47
2023/04/15 02:30:16;;;;;;;7.47;2.15;;;;;;;12.80;68.43;101398.66;5093544;28;20046;-46
2023/04/15 02:32:43;;;;;;;8.82;2.03;;;;;;;12.64;69.32;101391.00;5093183;28;20020;-46
2023/04/15 02:35:10;;;;;;;8.90;2.20;;;;;;;12.66;69.34;101399.72;5093151;28;20032;-45
2023/04/15 02:37:42;;;;;;;11.93;2.03;;;;;;;12.67;69.41;101395.97;5092583;28;20119;-46
2023/04/15 02:40:12;;;;;;;5.13;1.77;;;;;;;12.53;69.85;101397.00;5093336;28;20411;-49
2023/04/15 02:42:39;;;;;;;9.27;2.20;;;;;;;12.42;70.38;101406.47;5083546;28;20047;-45
2023/04/15 02:45:06;;;;;;;9.55;1.88;;;;;;;12.35;70.57;101397.59;5094296;28;20021;-47
2023/04/15 02:47:34;;;;;;;9.77;1.92;;;;;;;12.13;71.39;101404.97;5112604;28;20039;-47
2023/04/15 02:50:03;;;;;;;9.40;2.22;;;;;;;12.38;70.58;101405.22;5113071;28;20016;-45
2023/04/15 02:52:29;;;;;;;6.10;1.80;;;;;;;12.25;70.70;101411.41;5098303;28;20498;-49
2023/04/15 02:54:59;;;;;;;11.05;2.13;;;;;;;12.10;71.41;101411.59;5092901;28;20464;-49
2023/04/15 02:57:28;;;;;;;10.98;2.30;;;;;;;11.98;72.03;101418.53;5092199;28;20028;-47
2023/04/15 02:59:54;;;;;;;4.75;1.88;;;;;;;12.10;71.62;101426.84;5091762;28;20488;-47
2023/04/15 03:02:20;;;;;;;5.63;1.73;;;;;;;12.09;71.83;101420.66;5092785;28;20027;-47
2023/04/15 03:04:46;;;;;;;11.35;2.38;;;;;;;12.02;71.96;101425.16;5092621;28;20028;-48
2023/04/15 03:07:13;;;;;;;10.48;2.50;;;;;;;11.88;72.52;101434.19;5092061;28;20024;-46
2023/04/15 03:09:40;;;;;;;7.15;2.20;;;;;;;11.99;72.22;101432.78;5092214;28;20047;-49
2023/04/15 03:12:06;;;;;;;12.13;2.40;;;;;;;12.03;71.68;101442.91;5092215;28;20449;-46
2023/04/15 03:14:32;;;;;;;8.57;2.60;;;;;;;12.10;71.64;101443.78;5092237;28;20028;-47
2023/04/15 03:16:59;;;;;;;6.85;2.08;;;;;;;11.86;72.23;101455.03;5087356;28;20039;-47
2023/04/15 03:19:25;;;;;;;8.85;2.35;;;;;;;11.67;73.17;101448.53;5091607;28;20380;-45
2023/04/15 03:21:51;;;;;;;6.40;1.75;;;;;;;11.73;72.74;101452.25;5112521;28;20020;-48
2023/04/15 03:24:17;;;;;;;18.85;11.27;;;;;;;11.76;72.62;101458.03;5112676;28;20159;-49
2023/04/15 03:26:44;;;;;;;7.43;3.15;;;;;;;11.92;71.91;101464.97;5112140;28;20031;-46
2023/04/15 03:29:10;;;;;;;9.93;2.58;;;;;;;11.93;71.32;101471.16;5112723;28;20102;-50
2023/04/15 03:31:36;;;;;;;8.77;2.17;;;;;;;11.96;71.73;101489.53;5112431;28;20027;-50
2023/04/15 03:34:03;;;;;;;8.93;2.60;;;;;;;11.88;71.61;101483.31;5112332;28;20106;-47
2023/04/15 03:36:33;;;;;;;7.30;2.00;;;;;;;11.83;71.89;101484.94;5111284;28;20024;-46
2023/04/15 03:39:00;;;;;;;9.15;1.70;;;;;;;11.65;72.27;101488.09;5112760;28;20543;-45
2023/04/15 03:41:27;;;;;;;6.30;1.80;;;;;;;11.63;72.79;101490.16;5112425;28;20173;-46
2023/04/15 03:43:54;;;;;;;6.80;2.15;;;;;;;11.84;71.25;101492.78;5112176;28;20464;-45
2023/04/15 03:46:20;;;;;;;6.22;1.80;;;;;;;12.03;70.58;101518.03;5112022;28;20031;-45
2023/04/15 03:48:47;;;;;;;8.40;1.90;;;;;;;11.85;71.44;101509.72;5112482;28;20418;-46
2023/04/15 03:51:13;;;;;;;6.07;2.10;;;;;;;11.80;72.03;101515.63;5112464;28;20357;-44
2023/04/15 03:53:40;;;;;;;8.85;1.70;;;;;;;11.76;71.94;101518.91;5111388;28;20055;-49
2023/04/15 03:56:06;;;;;;;9.65;2.35;;;;;;;11.75;71.84;101528.81;5112048;28;20573;-47
2023/04/15 03:58:32;;;;;;;5.53;1.85;;;;;;;11.81;71.76;101530.72;5112023;28;20038;-51
2023/04/15 04:00:59;;;;;;;6.65;2.30;;;;;;;12.04;69.95;101533.13;5112145;28;20043;-46
2023/04/15 04:03:25;;;;;;;9.43;2.28;;;;;;;11.84;70.21;101542.94;5112146;28;20028;-46
2023/04/15 04:05:52;;;;;;;4.68;1.38;;;;;;;11.92;69.91;101545.44;5111752;28;20062;-48
2023/04/15 04:08:20;;;;;;;6.32;2.17;;;;;;;11.88;70.14;101545.03;5112183;28;20115;-45
2023/04/15 04:10:46;;;;;;;4.72;1.80;;;;;;;11.63;72.12;101552.66;5111253;28;20016;-45
2023/04/15 04:13:13;;;;;;;5.53;2.03;;;;;;;11.54;72.76;101553.00;5116149;28;20020;-44
2023/04/15 04:15:39;;;;;;;7.53;1.90;;;;;;;11.52;72.84;101552.38;5115707;28;20054;-46
2023/04/15 04:18:06;;;;;;;4.18;1.58;;;;;;;11.67;71.60;101555.78;5115909;27;20055;-46
2023/04/15 04:20:33;;;;;;;10.57;2.30;;;;;;;11.73;71.92;101557.69;5095438;28;20472;-45
2023/04/15 04:22:59;;;;;;;9.55;2.35;;;;;;;11.60;72.35;101560.25;5094463;28;20036;-45
2023/04/15 04:25:26;;;;;;;9.88;2.20;;;;;;;11.62;72.22;101571.63;5113265;28;20023;-45
2023/04/15 04:27:52;;;;;;;12.07;2.08;;;;;;;11.69;71.92;101564.44;5111245;28;20043;-47
2023/04/15 04:30:18;;;;;;;6.00;1.75;;;;;;;11.52;72.87;101576.50;5111652;28;20507;-47
2023/04/15 04:32:45;;;;;;;5.15;1.70;;;;;;;11.57;72.47;101574.88;5113932;28;20157;-48
2023/04/15 04:35:11;;;;;;;4.82;1.83;;;;;;;11.22;73.85;101579.34;5115954;28;20023;-47
2023/04/15 04:37:37;;;;;;;8.45;1.80;;;;;;;11.46;72.85;101578.09;5115164;28;20027;-47
2023/04/15 04:40:04;;;;;;;9.98;2.15;;;;;;;11.23;73.90;101591.72;5114006;28;20048;-45
2023/04/15 04:42:30;;;;;;;4.47;1.75;;;;;;;11.14;73.97;101590.16;5095834;28;20129;-45
2023/04/15 04:44:57;;;;;;;6.43;1.55;;;;;;;11.42;72.82;101584.03;5102225;28;20037;-47
2023/04/15 04:47:23;;;;;;;6.03;1.70;;;;;;;11.21;73.74;101598.28;5114674;28;20027;-48
2023/04/15 04:49:49;;;;;;;5.97;1.83;;;;;;;11.35;73.33;101600.88;5109539;28;20020;-44
2023/04/15 04:52:15;;;;;;;4.63;1.50;;;;;;;11.39;72.47;101605.88;5114965;28;20035;-48
2023/04/15 04:54:42;;;;;;;8.75;1.90;;;;;;;11.18;73.63;101615.56;5098205;28;20104;-48
2023/04/15 04:57:09;;;;;;;5.65;1.52;;;;;;;11.28;73.13;101615.25;5094018;28;20068;-45
2023/04/15 04:59:35;;;;;;;9.10;2.20;;;;;;;10.82;74.96;101616.41;5091606;28;20028;-47
2023/04/15 05:02:02;;;;;;;8.40;1.50;;;;;;;11.10;73.99;101616.53;5093811;28;20480;-46
2023/04/15 05:04:28;;;;;;;4.68;1.60;;;;;;;11.06;73.90;101617.94;5103623;28;20114;-45
2023/04/15 05:06:54;;;;;;;5.38;1.65;;;;;;;10.99;74.40;101629.56;5114130;28;20464;-46
2023/04/15 05:09:20;;;;;;;6.80;2.20;;;;;;;10.92;74.68;101626.00;5111328;28;20122;-49
2023/04/15 05:11:47;;;;;;;5.97;1.52;;;;;;;10.86;74.64;101624.91;5114530;28;20106;-48
2023/04/15 05:14:13;;;;;;;7.22;1.88;;;;;;;10.97;74.33;101620.91;5102985;28;20406;-47
2023/04/15 05:16:39;;;;;;;6.05;1.38;;;;;;;10.83;74.81;101625.31;5093493;28;20048;-44
2023/04/15 05:19:06;;;;;;;5.38;1.88;;;;;;;10.84;74.79;101632.31;5092581;28;20044;-45
2023/04/15 05:21:33;;;;;;;6.38;2.00;;;;;;;10.94;74.22;101630.16;5092633;28;20168;-45
2023/04/15 05:23:59;;;;;;;4.82;1.50;;;;;;;10.86;74.25;101634.78;5093222;28;20437;-45
2023/04/15 05:26:26;;;;;;;6.88;1.98;;;;;;;10.49;75.66;101633.91;5093399;28;20310;-45
2023/04/15 05:28:52;;;;;;;3.97;1.58;;;;;;;10.71;74.82;101632.13;5094096;28;20114;-44
2023/04/15 05:31:19;;;;;;;5.97;1.55;;;;;;;10.78;74.21;101633.91;5093774;28;20036;-45
2023/04/15 05:33:45;;;;;;;8.68;2.03;;;;;;;10.51;75.15;101637.25;5093846;28;20028;-46
2023/04/15 05:36:12;;;;;;;7.75;1.67;;;;;;;10.75;74.11;101639.63;5102962;28;20038;-44
2023/04/15 05:38:38;;;;;;;7.75;1.70;;;;;;;10.65;74.47;101635.56;5093571;28;20156;-46
2023/04/15 05:41:04;;;;;;;7.97;1.38;;;;;;;10.70;74.33;101638.50;5093358;28;20085;-45
2023/04/15 05:43:31;;;;;;;4.43;1.38;;;;;;;10.36;75.52;101633.75;5093788;28;20035;-44
2023/04/15 05:45:57;;;;;;;8.75;1.85;;;;;;;10.41;75.58;101640.22;5093414;28;20032;-44
2023/04/15 05:48:23;;;;;;;5.63;1.30;;;;;;;10.31;76.19;101640.47;5093671;28;20020;-49
2023/04/15 05:50:49;;;;;;;9.27;1.98;;;;;;;10.51;75.06;101640.75;5093548;28;20020;-45
2023/04/15 05:53:15;;;;;;;11.63;2.33;;;;;;;10.38;75.74;101635.22;5093569;28;20024;-45
2023/04/15 05:55:42;;;;;;;8.00;1.92;;;;;;;10.30;76.09;101638.00;5093290;28;20384;-45
2023/04/15 05:58:08;;;;;;;7.72;1.33;;;;;;;10.26;76.53;101639.38;5093053;28;20024;-46
2023/04/15 06:00:35;;;;;;;5.15;1.60;;;;;;;10.18;77.49;101639.44;5093571;28;20573;-44
2023/04/15 06:03:02;;;;;;;8.05;2.05;;;;;;;10.08;77.87;101637.03;5093099;28;20020;-46
2023/04/15 06:05:28;;;;;;;10.50;2.28;;;;;;;9.97;78.46;101640.16;5093081;28;20492;-46
2023/04/15 06:07:54;;;;;;;9.80;1.88;;;;;;;10.19;77.45;101643.78;5092930;28;20594;-45
2023/04/15 06:10:20;;;;;;;5.38;1.70;;;;;;;9.89;79.00;101651.78;5104997;28;20025;-46
2023/04/15 06:12:46;;;;;;;10.10;1.80;;;;;;;10.12;77.85;101645.53;5113256;28;20024;-45
2023/04/15 06:15:13;;;;;;;6.15;1.90;;;;;;;10.20;77.38;101651.59;5102403;28;20088;-46
2023/04/15 06:17:39;;;;;;;8.93;2.28;;;;;;;10.18;77.85;101648.28;5089147;28;20162;-47
2023/04/15 06:20:07;;;;;;;7.18;1.60;;;;;;;10.19;77.16;101647.28;5073133;28;20045;-46
2023/04/15 06:22:33;;;;;;;5.53;1.58;;;;;;;10.27;76.88;101652.59;5113425;28;20020;-48
2023/04/15 06:24:59;;;;;;;8.68;2.17;;;;;;;10.19;77.09;101643.78;5098980;28;20491;-47
2023/04/15 06:27:26;;;;;;;6.35;1.75;;;;;;;10.05;78.40;101653.47;5072592;28;20032;-46
2023/04/15 06:29:52;;;;;;;3.25;1.30;;;;;;;10.12;77.47;101656.22;5071878;28;20020;-45
2023/04/15 06:32:18;;;;;;;6.60;1.58;;;;;;;10.17;77.44;101664.53;5107482;28;20034;-47
2023/04/15 06:34:44;;;;;;;5.10;1.33;;;;;;;10.04;78.08;101662.47;5079138;28;20021;-47
2023/04/15 06:37:14;;;;;;;4.88;1.90;;;;;;;10.09;77.81;101657.41;5107777;28;20027;-46
2023/04/15 06:39:44;;;;;;;7.43;1.90;;;;;;;10.03;78.63;101658.13;5113225;28;20012;-50
2023/04/15 06:42:11;;;;;;;12.77;1.83;;;;;;;10.05;78.13;101656.97;5075835;28;20058;-48
2023/04/15 06:44:37;;;;;;;21.05;2.50;;;;;;;10.01;78.42;101665.53;5071810;28;20048;-50
2023/04/15 06:47:04;;;;;;;5.55;1.63;;;;;;;10.11;77.45;101663.44;5084548;28;20028;-47
2023/04/15 06:49:30;;;;;;;8.88;1.88;;;;;;;10.16;77.32;101662.84;5072070;28;20125;-47
2023/04/15 06:51:56;;;;;;;9.73;2.42;;;;;;;10.10;77.75;101663.59;5069969;28;20021;-49
2023/04/15 06:54:23;;;;;;;3.42;1.27;;;;;;;10.07;77.73;101664.78;5071823;28;20031;-50
2023/04/15 06:56:50;;;;;;;4.22;1.58;;;;;;;10.07;77.87;101670.16;5070116;28;20108;-48
2023/04/15 06:59:16;;;;;;;3.83;1.20;;;;;;;9.89;78.86;101667.00;5071675;28;20025;-46
2023/04/15 07:01:43;;;;;;;6.32;1.55;;;;;;;10.00;78.28;101666.53;5073598;28;20021;-47
2023/04/15 07:04:10;;;;;;;4.97;1.70;;;;;;;10.05;78.32;101672.19;5071922;28;20036;-50
2023/04/15 07:06:36;;;;;;;9.88;1.83;;;;;;;10.01;78.12;101674.38;5071230;28;20078;-46
2023/04/15 07:09:04;;;;;;;16.05;2.45;;;;;;;9.70;79.71;101666.47;5069361;28;20114;-49
2023/04/15 07:11:30;;;;;;;5.65;1.30;;;;;;;9.67;80.16;101666.00;5070947;28;20358;-49
2023/04/15 07:13:57;;;;;;;5.60;1.70;;;;;;;9.80;79.66;101671.56;5073033;28;20047;-47
2023/04/15 07:16:24;;;;;;;5.30;1.42;;;;;;;9.72;79.69;101666.31;5070683;28;20044;-47
2023/04/15 07:18:50;;;;;;;5.07;1.73;;;;;;;9.40;81.33;101675.41;5070521;28;20032;-49
2023/04/15 07:21:16;;;;;;;8.98;2.03;;;;;;;9.44;80.67;101671.38;5070509;28;20020;-45
2023/04/15 07:23:42;;;;;;;7.53;1.58;;;;;;;9.54;80.61;101679.94;5072470;28;20021;-49
2023/04/15 07:26:10;;;;;;;10.15;2.13;;;;;;;9.36;81.00;101674.91;5069899;28;20025;-46
2023/04/15 07:28:36;;;;;;;5.38;1.52;;;;;;;9.47;80.64;101669.16;5070777;28;20196;-46
2023/04/15 07:31:02;;;;;;;4.70;1.95;;;;;;;9.51;80.78;101667.78;5076312;28;20182;-48
2023/04/15 07:33:28;;;;;;;11.32;2.03;;;;;;;9.42;81.41;101670.69;5071782;28;20103;-46
2023/04/15 07:35:55;;;;;;;6.68;1.45;;;;;;;9.21;82.61;101679.34;5081277;28;20105;-48
2023/04/15 07:38:22;;;;;;;8.52;1.83;;;;;;;9.38;82.26;101674.72;5087741;28;20592;-49
2023/04/15 07:40:48;;;;;;;7.25;1.70;;;;;;;9.24;82.56;101679.84;5091487;28;20506;-49
2023/04/15 07:43:14;;;;;;;9.73;1.73;;;;;;;9.29;82.12;101678.47;5091499;28;20081;-49
2023/04/15 07:45:41;;;;;;;6.10;1.30;;;;;;;9.37;81.69;101678.41;5091318;28;20472;-49
2023/04/15 07:48:07;;;;;;;8.27;1.85;;;;;;;9.30;81.80;101680.13;5086995;28;20032;-49
2023/04/15 07:50:33;;;;;;;6.57;1.80;;;;;;;9.25;82.62;101684.16;5075463;28;20020;-49
2023/04/15 07:52:59;;;;;;;7.65;1.92;;;;;;;9.23;82.79;101685.34;5109945;28;20403;-46
2023/04/15 07:55:26;;;;;;;7.38;2.47;;;;;;;9.26;83.12;101685.81;5107170;28;20031;-45
2023/04/15 07:57:52;;;;;;;10.02;1.90;;;;;;;9.26;83.27;101693.00;5095612;28;20121;-46
2023/04/15 08:00:19;;;;;;;8.40;2.00;;;;;;;9.34;83.20;101694.81;5095731;28;20024;-47
2023/04/15 08:02:47;;;;;;;8.10;1.95;;;;;;;9.49;82.79;101690.34;5095301;28;20460;-45
2023/04/15 08:05:13;;;;;;;6.40;2.20;;;;;;;9.48;82.81;101694.84;5095259;28;20020;-46
2023/04/15 08:07:40;;;;;;;9.15;1.90;;;;;;;9.36;82.54;101698.13;5095276;28;20031;-45
2023/04/15 08:10:07;;;;;;;10.68;1.98;;;;;;;9.34;81.96;101692.13;5113887;28;20023;-46
2023/04/15 08:12:33;;;;;;;8.48;1.67;;;;;;;9.47;82.13;101700.38;5115693;28;20027;-50
2023/04/15 08:15:00;;;;;;;8.95;1.92;;;;;;;9.48;81.92;101707.38;5115461;28;20040;-45
2023/04/15 08:17:27;;;;;;;10.73;1.50;;;;;;;9.57;81.60;101697.50;5115383;28;20703;-45
2023/04/15 08:19:53;;;;;;;9.80;1.65;;;;;;;9.63;80.79;101705.63;5084081;28;20374;-45
2023/04/15 08:22:19;;;;;;;5.45;1.48;;;;;;;9.63;80.46;101708.28;5077482;28;20142;-46
2023/04/15 08:24:46;;;;;;;6.13;1.48;;;;;;;9.63;79.91;101704.78;5074067;28;20029;-45
2023/04/15 08:27:12;;;;;;;6.30;1.33;;;;;;;9.52;80.39;101704.19;5077951;28;20502;-45
2023/04/15 08:29:39;;;;;;;7.78;1.48;;;;;;;9.62;79.97;101695.13;5076070;28;20365;-45
2023/04/15 08:32:06;;;;;;;5.15;1.20;;;;;;;9.52;80.55;101698.03;5083984;28;20028;-45
2023/04/15 08:34:33;;;;;;;5.78;1.40;;;;;;;9.59;80.64;101700.81;5078670;28;20028;-46
2023/04/15 08:36:59;;;;;;;3.83;1.38;;;;;;;9.65;80.50;101700.09;5075516;28;20055;-45
2023/04/15 08:39:26;;;;;;;5.93;1.67;;;;;;;9.70;80.45;101700.38;5094487;28;20031;-46
2023/04/15 08:41:52;;;;;;;4.78;1.85;;;;;;;9.53;80.70;101694.31;5094765;28;20154;-47
2023/04/15 08:44:19;;;;;;;5.53;1.50;;;;;;;9.64;80.69;101693.09;5095300;28;20024;-47
2023/04/15 08:46:47;;;;;;;4.78;1.48;;;;;;;9.56;80.55;101688.63;5094418;28;20020;-45
2023/04/15 08:49:16;;;;;;;10.95;1.58;;;;;;;9.56;80.57;101688.63;5088802;28;20027;-46
2023/04/15 08:51:44;;;;;;;3.80;1.35;;;;;;;9.69;80.26;101682.69;5094562;28;20016;-45
2023/04/15 08:54:11;;;;;;;7.55;1.70;;;;;;;9.58;80.29;101686.63;5094569;28;20030;-45
2023/04/15 08:56:39;;;;;;;6.00;1.45;;;;;;;9.63;79.91;101686.09;5094416;28;20123;-45
2023/04/15 08:59:06;;;;;;;9.77;1.80;;;;;;;9.52;80.13;101684.66;5094802;28;20020;-46
2023/04/15 09:01:33;;;;;;;8.98;1.58;;;;;;;9.66;79.92;101683.88;5114828;28;20123;-46
2023/04/15 09:04:00;;;;;;;6.63;1.65;;;;;;;9.70;79.58;101679.81;5114856;27;20111;-45
2023/04/15 09:06:26;;;;;;;14.38;2.13;;;;;;;9.56;80.50;101687.81;5114644;27;20034;-47
2023/04/15 09:08:52;;;;;;;7.57;1.48;;;;;;;9.62;79.76;101681.75;5114443;28;20443;-45
2023/04/15 09:11:21;;;;;;;7.28;1.73;;;;;;;9.69;79.13;101677.34;5114688;28;20027;-49
2023/04/15 09:13:48;;;;;;;5.68;1.20;;;;;;;9.71;79.28;101684.16;5114868;28;20535;-46
2023/04/15 09:16:14;;;;;;;7.75;1.58;;;;;;;9.71;79.14;101680.66;5110743;28;20434;-49
2023/04/15 09:18:40;;;;;;;5.70;1.63;;;;;;;9.59;79.74;101688.28;5094373;28;20028;-45
2023/04/15 09:21:25;;;;;;;5.53;1.40;;;;;;;9.57;80.37;101684.94;5093955;28;20027;-45
2023/04/15 09:24:00;;;;;;;4.90;1.20;;;;;;;9.55;80.38;101686.97;5094111;28;20023;-46
2023/04/15 09:26:39;;;;;;;8.00;1.98;;;;;;;9.53;80.64;101686.31;5092960;28;20085;-45
2023/04/15 09:29:13;;;;;;;8.80;1.75;;;;;;;9.67;79.26;101695.41;5094034;28;20098;-46
2023/04/15 09:31:40;;;;;;;4.90;1.65;;;;;;;9.59;80.47;101687.44;5093805;28;20469;-45
2023/04/15 09:34:06;;;;;;;4.03;1.52;;;;;;;9.50;80.38;101689.34;5094461;28;20043;-47
2023/04/15 09:36:50;;;;;;;6.88;1.50;;;;;;;9.56;80.24;101691.31;5093570;28;20058;-46
2023/04/15 09:39:17;;;;;;;6.10;1.40;;;;;;;9.45;80.32;101692.56;5093535;28;20058;-45
2023/04/15 09:41:43;;;;;;;4.53;1.10;;;;;;;9.54;80.12;101693.31;5093546;28;20012;-45
2023/04/15 09:44:26;;;;;;;3.50;1.50;;;;;;;9.68;79.35;101692.56;5097544;28;20035;-46
2023/04/15 09:46:52;;;;;;;4.35;1.63;;;;;;;9.65;79.32;101692.91;5100003;28;20056;-46
2023/04/15 09:49:19;;;;;;;3.75;1.17;;;;;;;9.55;78.45;101689.66;5093407;28;20085;-45
2023/04/15 09:51:46;;;;;;;6.30;1.60;;;;;;;9.57;78.26;101690.31;5093896;28;20054;-46
2023/04/15 09:54:12;;;;;;;6.40;1.70;;;;;;;9.55;78.70;101694.16;5093371;28;20173;-46
2023/04/15 09:56:41;;;;;;;5.20;1.58;;;;;;;9.53;78.96;101695.16;5092987;28;20032;-45
2023/04/15 09:59:08;;;;;;;7.35;1.63;;;;;;;9.49;79.59;101696.53;5093309;28;20084;-49
2023/04/15 10:01:35;;;;;;;3.80;1.40;;;;;;;9.59;79.39;101690.94;5093203;28;20101;-49
2023/04/15 10:04:03;;;;;;;4.50;1.20;;;;;;;9.48;79.96;101689.50;5093319;28;20031;-47
2023/04/15 10:06:30;;;;;;;7.90;1.75;;;;;;;9.47;79.41;101705.72;5104248;28;20113;-47
2023/04/15 10:08:59;;;;;;;4.95;1.60;;;;;;;9.35;79.52;101704.47;5094637;28;20032;-45
2023/04/15 10:11:30;;;;;;;7.82;1.65;;;;;;;9.44;78.94;101700.75;5092882;28;20383;-45
2023/04/15 10:13:57;;;;;;;6.63;1.50;;;;;;;9.46;79.15;101694.22;5093471;28;20043;-49
2023/04/15 10:16:29;;;;;;;4.55;1.40;;;;;;;9.56;79.40;101699.34;5092502;28;20518;-50
2023/04/15 10:18:57;;;;;;;8.75;1.38;;;;;;;9.63;79.08;101694.09;5093089;28;20615;-49
2023/04/15 10:21:24;;;;;;;4.50;1.40;;;;;;;9.61;79.79;101701.47;5092710;28;20012;-45
2023/04/15 10:23:51;;;;;;;6.15;1.63;;;;;;;9.48;80.26;101699.38;5092880;28;20070;-49
2023/04/15 10:26:17;;;;;;;3.58;1.38;;;;;;;9.39;80.18;101703.97;5097015;28;20464;-45
2023/04/15 10:28:44;;;;;;;7.20;2.08;;;;;;;9.45;79.45;101703.25;5093761;28;20028;-46
2023/04/15 10:31:13;;;;;;;3.17;1.35;;;;;;;9.42;80.23;101695.56;5092853;28;20048;-48
2023/04/15 10:33:41;;;;;;;6.30;1.58;;;;;;;9.55;80.19;101702.16;5092814;28;20058;-46
2023/04/15 10:36:08;;;;;;;4.50;1.48;;;;;;;9.54;79.76;101698.66;5092749;28;20077;-50
2023/04/15 10:38:38;;;;;;;8.25;1.40;;;;;;;9.59;79.39;101706.97;5092671;28;20058;-49
2023/04/15 10:41:21;;;;;;;5.10;1.63;;;;;;;9.47;79.29;101697.72;5092860;28;20115;-48
2023/04/15 10:43:50;;;;;;;5.57;1.42;;;;;;;9.36;79.33;101703.47;5092554;28;20077;-47
2023/04/15 10:46:23;;;;;;;2.78;1.10;;;;;;;9.47;79.49;101700.38;5091954;28;20024;-46
2023/04/15 10:48:51;;;;;;;13.25;2.13;;;;;;;9.54;79.26;101701.34;5092490;28;20020;-47
2023/04/15 10:51:31;;;;;;;7.93;1.77;;;;;;;9.61;80.09;101702.31;5092280;28;20028;-49
2023/04/15 10:53:59;;;;;;;6.15;1.30;;;;;;;9.48;79.12;101707.38;5092304;28;20035;-45
2023/04/15 10:56:27;;;;;;;5.90;1.40;;;;;;;9.43;78.92;101702.56;5091945;28;20107;-45
2023/04/15 10:58:53;;;;;;;7.00;1.15;;;;;;;9.31;79.78;101701.31;5100456;28;20428;-48
2023/04/15 11:01:24;;;;;;;7.05;1.55;;;;;;;9.39;79.96;101697.78;5112417;28;20028;-47
2023/04/15 11:03:50;;;;;;;7.82;1.30;;;;;;;9.48;79.20;101697.53;5094134;28;20020;-47
2023/04/15 11:06:17;;;;;;;5.80;1.48;;;;;;;9.46;79.02;101688.03;5091597;28;20021;-47
2023/04/15 11:08:52;;;;;;;11.82;1.90;;;;;;;9.40;79.05;101699.44;5092085;28;20024;-47
2023/04/15 11:11:19;;;;;;;3.58;1.63;;;;;;;9.35;78.97;101701.81;5090799;28;20098;-45
2023/04/15 11:13:51;;;;;;;5.65;1.55;;;;;;;9.26;79.83;101706.34;5092184;28;20475;-46
2023/04/15 11:16:17;;;;;;;8.05;1.88;;;;;;;9.46;78.78;101707.56;5098207;28;20445;-49
2023/04/15 11:18:55;;;;;;;8.10;1.63;;;;;;;9.52;78.42;101719.41;5092147;28;20024;-47
2023/04/15 11:21:25;;;;;;;6.28;1.20;;;;;;;9.59;78.31;101716.84;5090492;28;20024;-49
2023/04/15 11:23:51;;;;;;;5.65;1.35;;;;;;;9.65;77.67;101716.94;5092357;28;20038;-48
2023/04/15 11:26:18;;;;;;;7.75;1.67;;;;;;;9.48;78.58;101723.44;5098879;28;20031;-48